createdAt,value
2023-01-09T00:00:12.657Z,99313.00
2023-01-09T00:02:41.996Z,99312.00
2023-01-09T00:05:13.312Z,99315.00
2023-01-09T00:07:42.933Z,99315.00
2023-01-09T00:10:14.023Z,99324.00
2023-01-09T00:12:43.700Z,99323.00
2023-01-09T00:15:13.655Z,99320.00
2023-01-09T00:17:43.014Z,99324.00
2023-01-09T00:20:13.046Z,99326.00
2023-01-09T00:22:42.482Z,99327.00
2023-01-09T00:25:12.117Z,99330.00
2023-01-09T00:27:41.419Z,99343.00
2023-01-09T00:30:11.962Z,99345.00
2023-01-09T00:32:42.040Z,99347.00
2023-01-09T00:35:17.880Z,99354.00
2023-01-09T00:37:47.404Z,99353.00
2023-01-09T00:40:18.868Z,99357.00
2023-01-09T00:42:57.914Z,99353.00
2023-01-09T00:45:33.282Z,99357.00
2023-01-09T00:48:14.051Z,99358.00
2023-01-09T00:50:44.030Z,99367.00
2023-01-09T00:53:20.107Z,99365.00
2023-01-09T00:55:49.307Z,99371.00
2023-01-09T00:58:19.540Z,99370.00
2023-01-09T01:00:49.488Z,99369.00
2023-01-09T01:03:18.662Z,99368.00
2023-01-09T01:06:05.973Z,99375.00
2023-01-09T01:08:35.084Z,99377.00
2023-01-09T01:11:11.300Z,99384.00
2023-01-09T01:13:42.616Z,99385.00
2023-01-09T01:16:14.678Z,99394.00
2023-01-09T01:18:44.015Z,99393.00
2023-01-09T01:21:16.528Z,99394.00
2023-01-09T01:23:46.205Z,99399.00
2023-01-09T01:26:18.282Z,99395.00
2023-01-09T01:28:49.627Z,99404.00
2023-01-09T01:31:20.980Z,99405.00
2023-01-09T01:33:52.754Z,99405.00
2023-01-09T01:36:21.843Z,99409.00
2023-01-09T01:38:51.089Z,99404.00
2023-01-09T01:41:30.316Z,99406.00
2023-01-09T01:44:04.353Z,99412.00
2023-01-09T01:46:35.746Z,99414.00
2023-01-09T01:49:21.344Z,99417.00
2023-01-09T01:51:54.821Z,99417.00
2023-01-09T01:54:36.387Z,99420.00
2023-01-09T01:57:09.432Z,99421.00
2023-01-09T01:59:54.608Z,99418.00
2023-01-09T02:02:32.915Z,99423.00
2023-01-09T02:05:07.585Z,99416.00
2023-01-09T02:07:39.143Z,99427.00
2023-01-09T02:10:09.444Z,99418.00
2023-01-09T02:12:39.688Z,99430.00
2023-01-09T02:15:14.751Z,99429.00
2023-01-09T02:18:30.997Z,99432.00
2023-01-09T02:21:26.404Z,99424.00
2023-01-09T02:24:40.737Z,99430.00
2023-01-09T02:27:21.823Z,99427.00
2023-01-09T02:30:27.955Z,99428.00
2023-01-09T02:33:20.887Z,99435.00
2023-01-09T02:36:08.175Z,99434.00
2023-01-09T02:39:09.158Z,99425.00
2023-01-09T02:41:44.815Z,99430.00
2023-01-09T02:44:28.573Z,99430.00
2023-01-09T02:47:32.370Z,99429.00
2023-01-09T02:50:06.199Z,99425.00
2023-01-09T02:53:05.547Z,99425.00
2023-01-09T02:55:54.303Z,99424.00
2023-01-09T02:59:00.771Z,99420.00
2023-01-09T03:02:02.237Z,99424.00
2023-01-09T03:04:44.842Z,99420.00
2023-01-09T03:07:37.927Z,99421.00
2023-01-09T03:11:08.750Z,99421.00
2023-01-09T03:13:52.447Z,99422.00
2023-01-09T03:16:30.116Z,99420.00
2023-01-09T03:19:01.768Z,99418.00
2023-01-09T03:21:33.210Z,99417.00
2023-01-09T03:24:04.091Z,99414.00
2023-01-09T03:26:34.102Z,99411.00
2023-01-09T03:29:03.723Z,99410.00
2023-01-09T03:31:33.017Z,99412.00
2023-01-09T03:34:02.283Z,99409.00
2023-01-09T03:36:31.508Z,99404.00
2023-01-09T03:39:00.710Z,99404.00
2023-01-09T03:41:29.872Z,99404.00
2023-01-09T03:43:59.038Z,99401.00
2023-01-09T03:46:28.272Z,99399.00
2023-01-09T03:48:57.552Z,99398.00
2023-01-09T03:51:26.752Z,99387.00
2023-01-09T03:53:56.046Z,99387.00
2023-01-09T03:56:26.521Z,99372.00
2023-01-09T03:58:57.028Z,99367.00
2023-01-09T04:01:26.349Z,99373.00
2023-01-09T04:03:55.600Z,99370.00
2023-01-09T04:06:25.022Z,99366.00
2023-01-09T04:08:54.175Z,99357.00
2023-01-09T04:11:23.511Z,99351.00
2023-01-09T04:13:52.748Z,99357.00
2023-01-09T04:16:22.087Z,99351.00
2023-01-09T04:18:51.304Z,99343.00
2023-01-09T04:21:22.053Z,99344.00
2023-01-09T04:23:51.352Z,99335.00
2023-01-09T04:26:20.619Z,99326.00
2023-01-09T04:28:50.082Z,99326.00
2023-01-09T04:31:19.267Z,99323.00
2023-01-09T04:33:48.518Z,99324.00
2023-01-09T04:36:17.708Z,99316.00
2023-01-09T04:38:46.868Z,99310.00
2023-01-09T04:41:36.122Z,99298.00
2023-01-09T04:44:05.578Z,99289.00
2023-01-09T04:46:34.807Z,99280.00
2023-01-09T04:49:04.089Z,99282.00
2023-01-09T04:51:33.365Z,99271.00
2023-01-09T04:54:02.611Z,99271.00
2023-01-09T04:56:31.966Z,99268.00
2023-01-09T04:59:01.851Z,99259.00
2023-01-09T05:01:31.159Z,99252.00
2023-01-09T05:04:00.519Z,99240.00
2023-01-09T05:06:30.022Z,99236.00
2023-01-09T05:08:59.592Z,99235.00
2023-01-09T05:11:29.536Z,99221.00
2023-01-09T05:13:58.668Z,99219.00
2023-01-09T05:16:27.750Z,99213.00
2023-01-09T05:18:58.185Z,99212.00
2023-01-09T05:21:27.652Z,99202.00
2023-01-09T05:23:56.776Z,99192.00
2023-01-09T05:26:26.240Z,99187.00
2023-01-09T05:28:59.697Z,99177.00
2023-01-09T05:31:29.633Z,99175.00
2023-01-09T05:34:00.275Z,99174.00
2023-01-09T05:36:29.394Z,99161.00
2023-01-09T05:39:03.545Z,99149.00
2023-01-09T05:41:32.620Z,99153.00
2023-01-09T05:44:01.803Z,99155.00
2023-01-09T05:46:30.958Z,99142.00
2023-01-09T05:49:00.381Z,99136.00
2023-01-09T05:51:29.505Z,99133.00
2023-01-09T05:53:59.078Z,99122.00
2023-01-09T05:56:28.288Z,99116.00
2023-01-09T05:58:58.755Z,99114.00
2023-01-09T06:01:28.033Z,99105.00
2023-01-09T06:03:57.291Z,99100.00
2023-01-09T06:06:27.024Z,99095.00
2023-01-09T06:08:56.247Z,99096.00
2023-01-09T06:11:25.414Z,99089.00
2023-01-09T06:13:54.608Z,99079.00
2023-01-09T06:16:23.825Z,99075.00
2023-01-09T06:18:53.056Z,99080.00
2023-01-09T06:21:22.265Z,99072.00
2023-01-09T06:23:51.423Z,99073.00
2023-01-09T06:26:20.620Z,99068.00
2023-01-09T06:28:49.810Z,99057.00
2023-01-09T06:31:19.059Z,99056.00
2023-01-09T06:33:48.319Z,99055.00
2023-01-09T06:36:17.799Z,99053.00
2023-01-09T06:38:46.969Z,99049.00
2023-01-09T06:41:16.170Z,99050.00
2023-01-09T06:43:45.493Z,99048.00
2023-01-09T06:46:14.749Z,99043.00
2023-01-09T06:48:43.986Z,99032.00
2023-01-09T06:51:13.167Z,99022.00
2023-01-09T06:53:42.380Z,99020.00
2023-01-09T06:56:11.575Z,99024.00
2023-01-09T06:58:40.844Z,99015.00
2023-01-09T07:01:10.337Z,99012.00
2023-01-09T07:03:39.650Z,99009.00
2023-01-09T07:06:09.095Z,99008.00
2023-01-09T07:08:38.348Z,99005.00
2023-01-09T07:11:07.655Z,98995.00
2023-01-09T07:13:39.284Z,98992.00
2023-01-09T07:16:09.204Z,98997.00
2023-01-09T07:18:38.451Z,98992.00
2023-01-09T07:21:10.782Z,98996.00
2023-01-09T07:23:39.993Z,98995.00
2023-01-09T07:26:09.171Z,98988.00
2023-01-09T07:28:38.478Z,98983.00
2023-01-09T07:31:08.589Z,98988.00
2023-01-09T07:33:38.088Z,98981.00
2023-01-09T07:36:07.804Z,98980.00
2023-01-09T07:38:37.592Z,98975.00
2023-01-09T07:41:07.185Z,98970.00
2023-01-09T07:43:37.127Z,98971.00
2023-01-09T07:46:07.508Z,98967.00
2023-01-09T07:48:36.718Z,98964.00
2023-01-09T07:51:07.178Z,98964.00
2023-01-09T07:53:36.365Z,98962.00
2023-01-09T07:56:05.816Z,98961.00
2023-01-09T07:58:35.045Z,98953.00
2023-01-09T08:01:05.572Z,98957.00
2023-01-09T08:03:35.269Z,98961.00
2023-01-09T08:06:08.168Z,98959.00
2023-01-09T08:08:37.433Z,98960.00
2023-01-09T08:11:06.675Z,98959.00
2023-01-09T08:13:35.871Z,98958.00
2023-01-09T08:16:05.143Z,98953.00
2023-01-09T08:18:34.364Z,98958.00
2023-01-09T08:21:03.455Z,98958.00
2023-01-09T08:23:32.522Z,98952.00
2023-01-09T08:26:01.707Z,98953.00
2023-01-09T08:28:30.860Z,98956.00
2023-01-09T08:31:01.101Z,98952.00
2023-01-09T08:33:33.915Z,98952.00
2023-01-09T08:36:03.871Z,98948.00
2023-01-09T08:38:33.744Z,98939.00
2023-01-09T08:41:23.207Z,98939.00
2023-01-09T08:44:11.110Z,98938.00
2023-01-09T08:46:58.813Z,98939.00
2023-01-09T08:49:28.541Z,98938.00
2023-01-09T08:51:58.320Z,98940.00
2023-01-09T08:54:28.108Z,98939.00
2023-01-09T08:56:57.980Z,98951.00
2023-01-09T08:59:28.057Z,98941.00
2023-01-09T09:01:58.781Z,98947.00
2023-01-09T09:04:30.122Z,98952.00
2023-01-09T09:06:59.372Z,98948.00
2023-01-09T09:09:28.552Z,98946.00
2023-01-09T09:11:57.778Z,98945.00
2023-01-09T09:14:45.344Z,98951.00
2023-01-09T09:17:14.629Z,98943.00
2023-01-09T09:19:43.787Z,98956.00
2023-01-09T09:22:12.941Z,98960.00
2023-01-09T09:24:42.206Z,98962.00
2023-01-09T09:27:11.376Z,98971.00
2023-01-09T09:29:40.534Z,98963.00
2023-01-09T09:32:09.759Z,98967.00
2023-01-09T09:34:39.168Z,98969.00
2023-01-09T09:37:08.954Z,98966.00
2023-01-09T09:39:38.236Z,98968.00
2023-01-09T09:42:36.015Z,98969.00
2023-01-09T09:45:08.441Z,98972.00
2023-01-09T09:47:57.052Z,98972.00
2023-01-09T09:50:47.752Z,98979.00
2023-01-09T09:53:36.905Z,98983.00
2023-01-09T09:56:07.444Z,98985.00
2023-01-09T09:58:47.581Z,98988.00
2023-01-09T10:01:43.002Z,98985.00
2023-01-09T10:04:20.027Z,98989.00
2023-01-09T10:07:07.092Z,98988.00
2023-01-09T10:10:01.586Z,98994.00
2023-01-09T10:12:58.439Z,98993.00
2023-01-09T10:16:00.030Z,98997.00
2023-01-09T10:18:45.361Z,99002.00
2023-01-09T10:22:07.853Z,99002.00
2023-01-09T10:25:12.177Z,99010.00
2023-01-09T10:28:31.015Z,99013.00
2023-01-09T10:31:30.416Z,99013.00
2023-01-09T10:34:11.873Z,99011.00
2023-01-09T10:37:20.165Z,99018.00
2023-01-09T10:40:22.003Z,99023.00
2023-01-09T10:43:03.346Z,99029.00
2023-01-09T10:45:56.627Z,99029.00
2023-01-09T10:48:37.010Z,99029.00
2023-01-09T10:51:25.321Z,99034.00
2023-01-09T10:53:57.627Z,99034.00
2023-01-09T10:56:38.335Z,99047.00
2023-01-09T10:59:11.102Z,99052.00
2023-01-09T11:01:44.312Z,99060.00
2023-01-09T11:04:38.581Z,99056.00
2023-01-09T11:07:33.494Z,99059.00
2023-01-09T11:10:12.722Z,99057.00
2023-01-09T11:12:42.758Z,99061.00
2023-01-09T11:15:30.057Z,99071.00
2023-01-09T11:18:23.128Z,99069.00
2023-01-09T11:20:53.762Z,99074.00
2023-01-09T11:23:34.979Z,99066.00
2023-01-09T11:26:05.034Z,99067.00
2023-01-09T11:28:34.294Z,99061.00
2023-01-09T11:31:04.645Z,99065.00
2023-01-09T11:33:49.201Z,99067.00
2023-01-09T11:36:20.080Z,99069.00
2023-01-09T11:38:56.592Z,99072.00
2023-01-09T11:41:31.676Z,99080.00
2023-01-09T11:44:04.109Z,99089.00
2023-01-09T11:46:45.658Z,99087.00
2023-01-09T11:49:25.417Z,99089.00
2023-01-09T11:52:23.448Z,99103.00
2023-01-09T11:55:06.503Z,99090.00
2023-01-09T11:57:35.929Z,99097.00
2023-01-09T12:00:27.677Z,99106.00
2023-01-09T12:03:47.155Z,99110.00
2023-01-09T12:06:49.407Z,99111.00
2023-01-09T12:10:01.531Z,99112.00
2023-01-09T12:13:00.527Z,99123.00
2023-01-09T12:15:41.793Z,99123.00
2023-01-09T12:18:33.127Z,99136.00
2023-01-09T12:21:30.265Z,99132.00
2023-01-09T12:24:23.401Z,99141.00
2023-01-09T12:27:01.167Z,99142.00
2023-01-09T12:29:38.933Z,99146.00
2023-01-09T12:32:33.725Z,99149.00
2023-01-09T12:35:42.483Z,99149.00
2023-01-09T12:38:41.553Z,99156.00
2023-01-09T12:41:23.831Z,99164.00
2023-01-09T12:44:34.623Z,99154.00
2023-01-09T12:47:34.680Z,99155.00
2023-01-09T12:50:20.112Z,99161.00
2023-01-09T12:53:23.113Z,99167.00
2023-01-09T12:56:20.388Z,99170.00
2023-01-09T12:59:01.871Z,99167.00
2023-01-09T13:01:47.388Z,99173.00
2023-01-09T13:04:35.809Z,99171.00
2023-01-09T13:07:21.624Z,99184.00
2023-01-09T13:10:34.566Z,99182.00
2023-01-09T13:13:19.816Z,99186.00
2023-01-09T13:16:12.006Z,99185.00
2023-01-09T13:18:53.414Z,99190.00
2023-01-09T13:21:23.284Z,99186.00
2023-01-09T13:24:22.203Z,99196.00
2023-01-09T13:27:21.215Z,99204.00
2023-01-09T13:30:03.157Z,99198.00
2023-01-09T13:32:59.650Z,99206.00
2023-01-09T13:35:29.153Z,99203.00
2023-01-09T13:37:58.720Z,99210.00
2023-01-09T13:40:39.333Z,99202.00
2023-01-09T13:43:15.710Z,99209.00
2023-01-09T13:45:58.819Z,99212.00
2023-01-09T13:48:40.692Z,99211.00
2023-01-09T13:51:48.347Z,99217.00
2023-01-09T13:55:01.912Z,99211.00
2023-01-09T13:57:46.676Z,99214.00
2023-01-09T14:00:22.453Z,99221.00
2023-01-09T14:03:18.313Z,99220.00
2023-01-09T14:05:52.625Z,99220.00
2023-01-09T14:08:27.256Z,99226.00
2023-01-09T14:11:04.399Z,99220.00
2023-01-09T14:13:46.119Z,99225.00
2023-01-09T14:16:24.751Z,99221.00
2023-01-09T14:19:02.536Z,99225.00
2023-01-09T14:21:58.276Z,99225.00
2023-01-09T14:24:34.964Z,99221.00
2023-01-09T14:27:04.385Z,99219.00
2023-01-09T14:29:33.518Z,99221.00
2023-01-09T14:32:24.227Z,99221.00
2023-01-09T14:35:20.579Z,99217.00
2023-01-09T14:38:06.459Z,99212.00
2023-01-09T14:40:47.284Z,99219.00
2023-01-09T14:44:06.142Z,99219.00
2023-01-09T14:46:39.989Z,99220.00
2023-01-09T14:49:26.509Z,99221.00
2023-01-09T14:51:59.780Z,99226.00
2023-01-09T14:54:35.423Z,99229.00
2023-01-09T14:57:05.037Z,99229.00
2023-01-09T14:59:36.440Z,99229.00
2023-01-09T15:02:05.772Z,99222.00
2023-01-09T15:04:42.431Z,99228.00
2023-01-09T15:07:26.897Z,99223.00
2023-01-09T15:10:06.782Z,99235.00
2023-01-09T15:12:36.865Z,99232.00
2023-01-09T15:15:09.560Z,99223.00
2023-01-09T15:17:40.340Z,99222.00
2023-01-09T15:20:21.889Z,99223.00
2023-01-09T15:22:54.597Z,99221.00
2023-01-09T15:25:40.393Z,99222.00
2023-01-09T15:28:29.968Z,99228.00
2023-01-09T15:31:15.959Z,99229.00
2023-01-09T15:33:48.696Z,99229.00
2023-01-09T15:36:31.854Z,99215.00
2023-01-09T15:39:01.930Z,99219.00
2023-01-09T15:41:51.677Z,99215.00
2023-01-09T15:44:29.420Z,99214.00
2023-01-09T15:47:03.305Z,99215.00
2023-01-09T15:49:34.703Z,99216.00
2023-01-09T15:52:05.602Z,99213.00
2023-01-09T15:54:36.240Z,99214.00
2023-01-09T15:57:26.892Z,99205.00
2023-01-09T15:59:59.308Z,99210.00
2023-01-09T16:02:47.243Z,99201.00
2023-01-09T16:05:18.877Z,99196.00
2023-01-09T16:07:50.475Z,99195.00
2023-01-09T16:11:01.954Z,99197.00
2023-01-09T16:13:36.255Z,99192.00
2023-01-09T16:16:06.115Z,99196.00
2023-01-09T16:18:50.733Z,99191.00
2023-01-09T16:21:35.155Z,99192.00
2023-01-09T16:24:49.548Z,99192.00
2023-01-09T16:27:26.980Z,99182.00
2023-01-09T16:30:09.740Z,99187.00
2023-01-09T16:32:52.346Z,99184.00
2023-01-09T16:35:27.104Z,99179.00
2023-01-09T16:37:56.489Z,99184.00
2023-01-09T16:40:28.196Z,99183.00
2023-01-09T16:43:02.581Z,99179.00
2023-01-09T16:45:36.507Z,99174.00
2023-01-09T16:48:22.631Z,99175.00
2023-01-09T16:50:51.891Z,99171.00
2023-01-09T16:53:26.657Z,99165.00
2023-01-09T16:55:56.425Z,99161.00
2023-01-09T16:58:36.392Z,99165.00
2023-01-09T17:01:06.538Z,99156.00
2023-01-09T17:03:35.695Z,99162.00
2023-01-09T17:06:07.240Z,99165.00
2023-01-09T17:08:39.593Z,99168.00
2023-01-09T17:11:35.906Z,99149.00
2023-01-09T17:14:05.265Z,99160.00
2023-01-09T17:16:39.824Z,99151.00
2023-01-09T17:19:14.902Z,99158.00
2023-01-09T17:21:44.059Z,99156.00
2023-01-09T17:24:31.457Z,99149.00
2023-01-09T17:27:21.566Z,99152.00
2023-01-09T17:29:50.847Z,99153.00
2023-01-09T17:32:21.332Z,99149.00
2023-01-09T17:34:50.472Z,99147.00
2023-01-09T17:37:21.002Z,99149.00
2023-01-09T17:39:50.177Z,99148.00
2023-01-09T17:51:32.576Z,99140.00
2023-01-09T17:54:01.767Z,99136.00
2023-01-09T17:56:36.158Z,99133.00
2023-01-09T17:59:07.260Z,99136.00
2023-01-09T18:01:37.704Z,99124.00
2023-01-09T18:04:07.026Z,99123.00
2023-01-09T18:06:40.087Z,99122.00
2023-01-09T18:09:11.883Z,99119.00
2023-01-09T18:11:42.837Z,99115.00
2023-01-09T18:14:13.859Z,99115.00
2023-01-09T18:16:43.308Z,99109.00
2023-01-09T18:19:12.915Z,99098.00
2023-01-09T18:21:42.083Z,99099.00
2023-01-09T18:24:11.458Z,99101.00
2023-01-09T18:26:40.683Z,99097.00
2023-01-09T18:29:12.319Z,99093.00
2023-01-09T18:31:41.642Z,99093.00
2023-01-09T18:34:12.081Z,99089.00
2023-01-09T18:36:41.426Z,99085.00
2023-01-09T18:39:12.855Z,99086.00
2023-01-09T18:41:42.076Z,99082.00
2023-01-09T18:44:11.553Z,99087.00
2023-01-09T18:46:43.087Z,99079.00
2023-01-09T18:49:12.424Z,99088.00
2023-01-09T18:51:41.958Z,99082.00
2023-01-09T18:54:12.700Z,99075.00
2023-01-09T18:56:42.305Z,99074.00
2023-01-09T18:59:13.319Z,99070.00
2023-01-09T19:01:42.524Z,99070.00
2023-01-09T19:04:11.792Z,99067.00
2023-01-09T19:06:41.029Z,99066.00
2023-01-09T19:09:10.246Z,99049.00
2023-01-09T19:11:39.455Z,99061.00
2023-01-09T19:14:08.705Z,99049.00
2023-01-09T19:16:37.949Z,99044.00
2023-01-09T19:19:09.496Z,99048.00
2023-01-09T19:21:38.775Z,99049.00
2023-01-09T19:24:08.418Z,99043.00
2023-01-09T19:26:37.676Z,99044.00
2023-01-09T19:29:06.847Z,99035.00
2023-01-09T19:31:36.283Z,99035.00
2023-01-09T19:34:05.501Z,99031.00
2023-01-09T19:36:35.076Z,99031.00
2023-01-09T19:39:06.235Z,99028.00
2023-01-09T19:41:35.409Z,99028.00
2023-01-09T19:44:04.948Z,99032.00
2023-01-09T19:46:36.376Z,99035.00
2023-01-09T19:49:07.035Z,99036.00
2023-01-09T19:51:36.521Z,99031.00
2023-01-09T19:56:41.603Z,99022.00
2023-01-09T19:59:13.205Z,99021.00
2023-01-09T20:01:43.484Z,99016.00
2023-01-09T20:04:18.342Z,99023.00
2023-01-09T20:06:50.811Z,99022.00
2023-01-09T20:09:28.314Z,99020.00
2023-01-09T20:11:57.675Z,99021.00
2023-01-09T20:14:26.947Z,99022.00
2023-01-09T20:17:00.865Z,99021.00
2023-01-09T20:19:31.110Z,99022.00
2023-01-09T20:22:01.937Z,99013.00
2023-01-09T20:24:31.337Z,99013.00
2023-01-09T20:27:01.661Z,99018.00
2023-01-09T20:29:30.840Z,99021.00
2023-01-09T20:32:00.747Z,99022.00
2023-01-09T20:34:29.944Z,99012.00
2023-01-09T20:36:59.050Z,99009.00
2023-01-09T20:39:28.180Z,99013.00
2023-01-09T20:41:57.467Z,99012.00
2023-01-09T20:44:26.722Z,99013.00
2023-01-09T20:46:55.910Z,99019.00
2023-01-09T20:49:25.149Z,99015.00
2023-01-09T20:51:55.052Z,99021.00
2023-01-09T20:54:24.605Z,99017.00
2023-01-09T20:56:54.604Z,99023.00
2023-01-09T20:59:24.491Z,99023.00
2023-01-09T21:01:53.978Z,99021.00
2023-01-09T21:04:23.229Z,99023.00
2023-01-09T21:06:52.434Z,99025.00
2023-01-09T21:09:21.817Z,99027.00
2023-01-09T21:11:50.934Z,99033.00
2023-01-09T21:14:21.055Z,99030.00
2023-01-09T21:16:54.981Z,99039.00
2023-01-09T21:19:24.996Z,99028.00
2023-01-09T21:21:54.134Z,99022.00
2023-01-09T21:24:23.301Z,99026.00
2023-01-09T21:26:52.405Z,99030.00
2023-01-09T21:29:21.536Z,99033.00
2023-01-09T21:31:50.674Z,99031.00
2023-01-09T21:34:21.758Z,99028.00
2023-01-09T21:36:51.269Z,99033.00
2023-01-09T21:39:22.283Z,99035.00
2023-01-09T21:42:09.528Z,99035.00
2023-01-09T21:44:57.124Z,99033.00
2023-01-09T21:47:26.345Z,99039.00
2023-01-09T21:49:55.448Z,99030.00
2023-01-09T21:52:26.623Z,99029.00
2023-01-09T21:54:56.812Z,99041.00
2023-01-09T21:57:26.362Z,99039.00
2023-01-09T21:59:55.615Z,99043.00
2023-01-09T22:02:24.860Z,99039.00
2023-01-09T22:04:54.540Z,99041.00
2023-01-09T22:07:23.726Z,99043.00
2023-01-09T22:09:53.530Z,99043.00
2023-01-09T22:12:22.770Z,99037.00
2023-01-09T22:14:51.900Z,99044.00
2023-01-09T22:17:21.128Z,99044.00
2023-01-09T22:19:50.440Z,99055.00
2023-01-09T22:22:19.674Z,99054.00
2023-01-09T22:24:49.102Z,99053.00
2023-01-09T22:27:18.421Z,99058.00
2023-01-09T22:29:47.850Z,99061.00
2023-01-09T22:32:17.150Z,99065.00
2023-01-09T22:34:46.457Z,99063.00
2023-01-09T22:37:16.501Z,99068.00
2023-01-09T22:39:46.303Z,99077.00
2023-01-09T22:42:17.726Z,99072.00
2023-01-09T22:44:47.043Z,99079.00
2023-01-09T22:47:16.225Z,99079.00
2023-01-09T22:49:52.707Z,99079.00
2023-01-09T22:52:23.061Z,99083.00
2023-01-09T22:54:52.271Z,99087.00
2023-01-09T22:57:21.524Z,99095.00
2023-01-09T22:59:51.080Z,99095.00
2023-01-09T23:02:20.784Z,99095.00
2023-01-09T23:04:49.974Z,99098.00
2023-01-09T23:07:19.495Z,99105.00
2023-01-09T23:09:48.755Z,99113.00
2023-01-09T23:12:17.979Z,99114.00
2023-01-09T23:14:47.225Z,99110.00
2023-01-09T23:17:16.439Z,99122.00
2023-01-09T23:19:45.665Z,99119.00
2023-01-09T23:22:14.933Z,99123.00
2023-01-09T23:24:44.045Z,99128.00
2023-01-09T23:27:13.328Z,99125.00
2023-01-09T23:29:42.596Z,99130.00
2023-01-09T23:32:14.933Z,99131.00
2023-01-09T23:34:44.096Z,99140.00
2023-01-09T23:37:13.364Z,99140.00
2023-01-09T23:39:42.621Z,99141.00
2023-01-09T23:42:34.046Z,99145.00
2023-01-09T23:45:03.426Z,99148.00
2023-01-09T23:47:32.541Z,99153.00
2023-01-09T23:50:01.721Z,99151.00
2023-01-09T23:52:31.056Z,99158.00
2023-01-09T23:55:11.945Z,99161.00
2023-01-09T23:57:41.321Z,99164.00
